createdAt,value
2016-05-16T00:00:39.740Z,1012.42
2016-05-16T00:01:39.728Z,1012.4
2016-05-16T00:02:39.715Z,1012.41
2016-05-16T00:03:39.701Z,1012.41
2016-05-16T00:04:39.689Z,1012.41
2016-05-16T00:05:39.675Z,1012.39
2016-05-16T00:06:39.663Z,1012.38
2016-05-16T00:07:39.634Z,1012.37
2016-05-16T00:08:39.622Z,1012.39
2016-05-16T00:09:39.608Z,1012.37
2016-05-16T00:10:39.595Z,1012.39
2016-05-16T00:11:39.582Z,1012.39
2016-05-16T00:12:39.569Z,1012.38
2016-05-16T00:13:39.557Z,1012.38
2016-05-16T00:14:39.544Z,1012.38
2016-05-16T00:15:39.531Z,1012.39
2016-05-16T00:16:39.518Z,1012.38
2016-05-16T00:17:39.489Z,1012.4
2016-05-16T00:18:39.476Z,1012.34
2016-05-16T00:19:39.463Z,1012.37
2016-05-16T00:20:39.450Z,1012.36
2016-05-16T00:21:39.438Z,1012.37
2016-05-16T00:22:39.424Z,1012.39
2016-05-16T00:23:39.427Z,1012.33
2016-05-16T00:24:39.399Z,1012.31
2016-05-16T00:25:39.386Z,1012.35
2016-05-16T00:26:39.357Z,1012.3
2016-05-16T00:27:39.344Z,1012.32
2016-05-16T00:28:39.332Z,1012.29
2016-05-16T00:29:39.318Z,1012.27
2016-05-16T00:30:39.306Z,1012.28
2016-05-16T00:31:39.292Z,1012.26
2016-05-16T00:32:39.280Z,1012.27
2016-05-16T00:33:39.251Z,1012.24
2016-05-16T00:34:39.551Z,1012.25
2016-05-16T00:35:39.272Z,1012.24
2016-05-16T00:36:39.212Z,1012.23
2016-05-16T00:37:39.200Z,1012.24
2016-05-16T00:38:39.186Z,1012.25
2016-05-16T00:39:39.173Z,1012.27
2016-05-16T00:40:39.161Z,1012.29
2016-05-16T00:41:39.132Z,1012.28
2016-05-16T00:42:39.119Z,1012.26
2016-05-16T00:43:39.106Z,1012.26
2016-05-16T00:44:39.093Z,1012.26
2016-05-16T00:45:39.080Z,1012.28
2016-05-16T00:46:39.067Z,1012.25
2016-05-16T00:47:39.055Z,1012.27
2016-05-16T00:48:39.041Z,1012.26
2016-05-16T00:49:39.028Z,1012.24
2016-05-16T00:50:39.000Z,1012.26
2016-05-16T00:51:38.987Z,1012.28
2016-05-16T00:52:38.974Z,1012.28
2016-05-16T00:53:38.961Z,1012.28
2016-05-16T00:54:38.949Z,1012.25
2016-05-16T00:55:38.935Z,1012.23
2016-05-16T00:56:38.922Z,1012.25
2016-05-16T00:57:38.910Z,1012.24
2016-05-16T00:58:38.897Z,1012.23
2016-05-16T00:59:38.867Z,1012.23
2016-05-16T01:00:38.854Z,1012.23
2016-05-16T01:01:38.842Z,1012.25
2016-05-16T01:02:38.829Z,1012.21
2016-05-16T01:03:38.816Z,1012.21
2016-05-16T01:04:38.803Z,1012.22
2016-05-16T01:05:38.790Z,1012.23
2016-05-16T01:06:38.761Z,1012.23
2016-05-16T01:07:38.749Z,1012.21
2016-05-16T01:08:38.736Z,1012.23
2016-05-16T01:09:38.723Z,1012.23
2016-05-16T01:10:38.710Z,1012.23
2016-05-16T01:11:38.697Z,1012.24
2016-05-16T01:12:38.684Z,1012.21
2016-05-16T01:13:38.656Z,1012.25
2016-05-16T01:14:38.643Z,1012.23
2016-05-16T01:15:38.630Z,1012.24
2016-05-16T01:16:38.616Z,1012.21
2016-05-16T01:17:38.603Z,1012.24
2016-05-16T01:18:38.591Z,1012.22
2016-05-16T01:19:38.578Z,1012.21
2016-05-16T01:20:38.566Z,1012.18
2016-05-16T01:21:38.552Z,1012.13
2016-05-16T01:22:38.523Z,1012.16
2016-05-16T01:23:38.511Z,1012.15
2016-05-16T01:24:38.498Z,1012.14
2016-05-16T01:25:38.485Z,1012.14
2016-05-16T01:26:38.471Z,1012.18
2016-05-16T01:27:38.460Z,1012.16
2016-05-16T01:28:38.445Z,1012.18
2016-05-16T01:29:38.418Z,1012.16
2016-05-16T01:30:38.404Z,1012.19
2016-05-16T01:31:38.391Z,1012.19
2016-05-16T01:32:38.379Z,1012.16
2016-05-16T01:33:38.351Z,1012.17
2016-05-16T01:34:38.337Z,1012.16
2016-05-16T01:35:38.323Z,1012.18
2016-05-16T01:36:38.311Z,1012.16
2016-05-16T01:37:38.299Z,1012.17
2016-05-16T01:38:38.285Z,1012.21
2016-05-16T01:39:38.272Z,1012.17
2016-05-16T01:40:38.260Z,1012.18
2016-05-16T01:41:38.231Z,1012.2
2016-05-16T01:42:38.217Z,1012.2
2016-05-16T01:43:38.206Z,1012.18
2016-05-16T01:44:38.192Z,1012.15
2016-05-16T01:45:38.178Z,1012.2
2016-05-16T01:46:38.167Z,1012.2
2016-05-16T01:47:38.153Z,1012.19
2016-05-16T01:48:38.124Z,1012.2
2016-05-16T01:49:38.112Z,1012.15
2016-05-16T01:50:38.099Z,1012.19
2016-05-16T01:51:38.116Z,1012.2
2016-05-16T01:52:38.144Z,1012.18
2016-05-16T01:53:38.172Z,1012.16
2016-05-16T01:54:38.198Z,1012.19
2016-05-16T01:55:38.211Z,1012.22
2016-05-16T01:56:38.218Z,1012.23
2016-05-16T01:57:38.220Z,1012.22
2016-05-16T01:58:38.222Z,1012.23
2016-05-16T01:59:38.223Z,1012.22
2016-05-16T02:00:38.225Z,1012.23
2016-05-16T02:01:38.219Z,1012.19
2016-05-16T02:02:38.197Z,1012.2
2016-05-16T02:03:38.189Z,1012.19
2016-05-16T02:04:38.182Z,1012.2
2016-05-16T02:05:38.174Z,1012.17
2016-05-16T02:06:38.163Z,1012.23
2016-05-16T02:07:38.153Z,1012.19
2016-05-16T02:08:38.141Z,1012.17
2016-05-16T02:09:38.115Z,1012.17
2016-05-16T02:10:38.104Z,1012.17
2016-05-16T02:11:38.093Z,1012.18
2016-05-16T02:12:38.080Z,1012.08
2016-05-16T02:13:38.067Z,1012.13
2016-05-16T02:14:38.056Z,1012.12
2016-05-16T02:15:38.043Z,1012.08
2016-05-16T02:16:38.015Z,1012.06
2016-05-16T02:17:38.001Z,1012.05
2016-05-16T02:18:37.990Z,1012.06
2016-05-16T02:19:37.976Z,1012.05
2016-05-16T02:20:37.962Z,1012.1
2016-05-16T02:21:37.951Z,1012.1
2016-05-16T02:22:37.937Z,1012.09
2016-05-16T02:23:37.908Z,1012.07
2016-05-16T02:24:37.896Z,1012.1
2016-05-16T02:25:37.883Z,1012.05
2016-05-16T02:26:37.870Z,1012.08
2016-05-16T02:27:37.856Z,1012.08
2016-05-16T02:28:37.844Z,1012.08
2016-05-16T02:29:37.831Z,1012.09
2016-05-16T02:30:37.803Z,1012.11
2016-05-16T02:31:37.789Z,1012.09
2016-05-16T02:32:37.777Z,1012.11
2016-05-16T02:33:37.763Z,1012.08
2016-05-16T02:34:37.751Z,1012.1
2016-05-16T02:35:37.738Z,1012.09
2016-05-16T02:36:37.725Z,1012.1
2016-05-16T02:37:37.696Z,1012.09
2016-05-16T02:38:37.683Z,1012.06
2016-05-16T02:39:37.671Z,1012.07
2016-05-16T02:40:37.658Z,1012.08
2016-05-16T02:41:37.644Z,1012.09
2016-05-16T02:42:37.631Z,1012.09
2016-05-16T02:43:37.618Z,1012.07
2016-05-16T02:44:37.606Z,1012.07
2016-05-16T02:45:37.593Z,1012.08
2016-05-16T02:46:37.564Z,1012.08
2016-05-16T02:47:37.568Z,1012.09
2016-05-16T02:48:37.538Z,1012.06
2016-05-16T02:49:37.526Z,1012.09
2016-05-16T02:50:37.668Z,1012.04
2016-05-16T02:51:37.515Z,1012.01
2016-05-16T02:52:37.486Z,1012.01
2016-05-16T02:53:37.459Z,1012.04
2016-05-16T02:54:37.445Z,1012.03
2016-05-16T02:55:37.432Z,1012.02
2016-05-16T02:56:37.419Z,1012.03
2016-05-16T02:57:37.406Z,1012.03
2016-05-16T02:58:37.394Z,1012.03
2016-05-16T02:59:37.381Z,1012.03
2016-05-16T03:00:37.352Z,1012.01
2016-05-16T03:01:37.339Z,1012.03
2016-05-16T03:02:37.326Z,1011.98
2016-05-16T03:03:37.313Z,1012
2016-05-16T03:04:37.300Z,1011.96
2016-05-16T03:05:37.287Z,1012
2016-05-16T03:06:37.274Z,1011.97
2016-05-16T03:07:37.261Z,1011.96
2016-05-16T03:08:37.233Z,1011.96
2016-05-16T03:09:37.219Z,1011.98
2016-05-16T03:10:37.207Z,1011.96
2016-05-16T03:11:37.194Z,1011.92
2016-05-16T03:12:37.182Z,1011.92
2016-05-16T03:13:37.168Z,1011.93
2016-05-16T03:14:37.155Z,1011.89
2016-05-16T03:15:37.126Z,1011.88
2016-05-16T03:16:37.113Z,1011.88
2016-05-16T03:17:37.101Z,1011.86
2016-05-16T03:18:37.088Z,1011.87
2016-05-16T03:19:37.075Z,1011.84
2016-05-16T03:20:37.062Z,1011.84
2016-05-16T03:21:37.049Z,1011.86
2016-05-16T03:22:37.036Z,1011.83
2016-05-16T03:23:37.007Z,1011.85
2016-05-16T03:24:36.995Z,1011.82
2016-05-16T03:25:36.982Z,1011.84
2016-05-16T03:26:36.969Z,1011.83
2016-05-16T03:27:36.956Z,1011.84
2016-05-16T03:28:36.942Z,1011.86
2016-05-16T03:29:36.930Z,1011.92
2016-05-16T03:30:36.901Z,1011.86
2016-05-16T03:31:36.889Z,1011.92
2016-05-16T03:32:36.875Z,1011.89
2016-05-16T03:33:36.863Z,1011.9
2016-05-16T03:34:36.850Z,1011.86
2016-05-16T03:35:36.836Z,1011.86
2016-05-16T03:36:36.824Z,1011.86
2016-05-16T03:37:36.795Z,1011.88
2016-05-16T03:38:36.782Z,1011.87
2016-05-16T03:39:36.769Z,1011.92
2016-05-16T03:40:36.757Z,1011.9
2016-05-16T03:41:36.743Z,1011.9
2016-05-16T03:42:36.730Z,1011.9
2016-05-16T03:43:36.702Z,1011.91
2016-05-16T03:44:36.689Z,1011.89
2016-05-16T03:45:36.676Z,1011.89
2016-05-16T03:46:36.663Z,1011.9
2016-05-16T03:47:36.651Z,1011.91
2016-05-16T03:48:36.637Z,1011.93
2016-05-16T03:49:36.624Z,1011.9
2016-05-16T03:50:36.612Z,1011.9
2016-05-16T03:51:36.582Z,1011.94
2016-05-16T03:52:36.570Z,1011.94
2016-05-16T03:53:36.557Z,1011.95
2016-05-16T03:54:36.544Z,1011.96
2016-05-16T03:55:36.531Z,1011.96
2016-05-16T03:56:36.518Z,1011.97
2016-05-16T03:57:36.506Z,1011.98
2016-05-16T03:58:36.492Z,1011.98
2016-05-16T03:59:36.464Z,1011.97
2016-05-16T04:00:36.466Z,1011.96
2016-05-16T04:01:36.438Z,1011.97
2016-05-16T04:02:36.441Z,1011.97
2016-05-16T04:03:36.412Z,1011.97
2016-05-16T04:04:36.399Z,1011.96
2016-05-16T04:05:36.386Z,1011.98
2016-05-16T04:06:36.373Z,1011.94
2016-05-16T04:07:36.345Z,1011.94
2016-05-16T04:08:36.332Z,1011.89
2016-05-16T04:09:36.319Z,1011.96
2016-05-16T04:10:36.305Z,1011.95
2016-05-16T04:11:36.293Z,1011.96
2016-05-16T04:12:36.280Z,1011.97
2016-05-16T04:13:36.266Z,1011.94
2016-05-16T04:14:36.254Z,1011.94
2016-05-16T04:15:36.226Z,1011.91
2016-05-16T04:16:36.213Z,1011.93
2016-05-16T04:17:36.199Z,1011.9
2016-05-16T04:18:36.187Z,1011.88
2016-05-16T04:19:36.173Z,1011.89
2016-05-16T04:20:36.348Z,1011.88
2016-05-16T04:21:36.148Z,1011.9
2016-05-16T04:22:36.135Z,1011.94
2016-05-16T04:23:36.106Z,1011.92
2016-05-16T04:24:36.093Z,1011.92
2016-05-16T04:25:36.081Z,1011.9
2016-05-16T04:26:36.067Z,1011.91
2016-05-16T04:27:36.054Z,1011.92
2016-05-16T04:28:36.042Z,1011.9
2016-05-16T04:29:36.029Z,1011.93
2016-05-16T04:30:36.000Z,1011.93
2016-05-16T04:31:35.987Z,1011.93
2016-05-16T04:32:35.974Z,1011.92
2016-05-16T04:33:35.961Z,1011.96
2016-05-16T04:34:35.948Z,1011.93
2016-05-16T04:35:35.936Z,1011.98
2016-05-16T04:36:35.922Z,1012.01
2016-05-16T04:37:35.910Z,1012.01
2016-05-16T04:38:35.881Z,1012
2016-05-16T04:39:35.869Z,1011.97
2016-05-16T04:40:35.855Z,1012.03
2016-05-16T04:41:35.842Z,1012.02
2016-05-16T04:42:35.830Z,1012.02
2016-05-16T04:43:35.816Z,1012.01
2016-05-16T04:44:35.804Z,1012.04
2016-05-16T04:45:35.790Z,1012
2016-05-16T04:46:35.762Z,1012.03
2016-05-16T04:47:35.749Z,1012
2016-05-16T04:48:35.736Z,1012.02
2016-05-16T04:49:35.723Z,1012.08
2016-05-16T04:50:35.710Z,1012.05
2016-05-16T04:51:35.697Z,1012.01
2016-05-16T04:52:35.685Z,1012.02
2016-05-16T04:53:35.671Z,1012.06
2016-05-16T04:54:35.659Z,1012.04
2016-05-16T04:55:35.645Z,1012.04
2016-05-16T04:56:35.632Z,1012.05
2016-05-16T04:57:35.635Z,1012.11
2016-05-16T04:58:35.622Z,1012.13
2016-05-16T04:59:35.609Z,1012.06
2016-05-16T05:00:35.597Z,1012.06
2016-05-16T05:01:35.584Z,1012.06
2016-05-16T05:02:35.586Z,1012.04
2016-05-16T05:03:35.573Z,1012.04
2016-05-16T05:04:35.560Z,1012.08
2016-05-16T05:05:35.938Z,1012.05
2016-05-16T05:06:35.550Z,1012.06
2016-05-16T05:07:35.553Z,1012.05
2016-05-16T05:08:35.539Z,1012.05
2016-05-16T05:09:35.542Z,1012.03
2016-05-16T05:10:35.530Z,1012.04
2016-05-16T05:11:35.532Z,1012.03
2016-05-16T05:12:35.519Z,1012.03
2016-05-16T05:13:35.522Z,1012.04
2016-05-16T05:14:35.510Z,1012.05
2016-05-16T05:15:35.513Z,1012.06
2016-05-16T05:16:35.499Z,1012.11
2016-05-16T05:17:35.501Z,1012.09
2016-05-16T05:18:35.504Z,1012.08
2016-05-16T05:19:35.491Z,1012.06
2016-05-16T05:20:35.494Z,1012.07
2016-05-16T05:21:35.481Z,1012.02
2016-05-16T05:22:35.484Z,1012.04
2016-05-16T05:23:35.486Z,1012.07
2016-05-16T05:24:35.474Z,1012.06
2016-05-16T05:25:35.476Z,1012.02
2016-05-16T05:26:35.463Z,1012.1
2016-05-16T05:27:35.465Z,1012.07
2016-05-16T05:28:35.468Z,1012.06
2016-05-16T05:29:35.456Z,1012.06
2016-05-16T05:30:35.458Z,1012.08
2016-05-16T05:31:35.461Z,1012.06
2016-05-16T05:32:35.448Z,1012.08
2016-05-16T05:33:35.451Z,1012.06
2016-05-16T05:34:35.454Z,1012.1
2016-05-16T05:35:35.441Z,1012.08
2016-05-16T05:36:35.443Z,1012.13
2016-05-16T05:37:35.447Z,1012.1
2016-05-16T05:38:35.433Z,1012.14
2016-05-16T05:39:35.436Z,1012.13
2016-05-16T05:40:35.422Z,1012.18
2016-05-16T05:41:35.425Z,1012.22
2016-05-16T05:42:35.427Z,1012.21
2016-05-16T05:43:35.416Z,1012.21
2016-05-16T05:44:35.402Z,1012.19
2016-05-16T05:45:35.405Z,1012.2
2016-05-16T05:46:35.391Z,1012.2
2016-05-16T05:47:35.395Z,1012.22
2016-05-16T05:48:35.381Z,1012.2
2016-05-16T05:49:35.385Z,1012.19
2016-05-16T05:50:35.371Z,1012.23
2016-05-16T05:51:35.374Z,1012.16
2016-05-16T05:52:35.361Z,1012.17
2016-05-16T05:53:35.349Z,1012.14
2016-05-16T05:54:35.351Z,1012.16
2016-05-16T05:55:35.338Z,1012.21
2016-05-16T05:56:35.326Z,1012.17
2016-05-16T05:57:35.328Z,1012.18
2016-05-16T05:58:35.299Z,1012.17
2016-05-16T05:59:35.301Z,1012.19
2016-05-16T06:00:35.289Z,1012.17
2016-05-16T06:01:35.276Z,1012.17
2016-05-16T06:02:35.279Z,1012.22
2016-05-16T06:03:35.266Z,1012.23
2016-05-16T06:04:35.253Z,1012.22
2016-05-16T06:05:35.240Z,1012.25
2016-05-16T06:06:35.242Z,1012.29
2016-05-16T06:07:35.230Z,1012.21
2016-05-16T06:08:35.217Z,1012.27
2016-05-16T06:09:35.203Z,1012.29
2016-05-16T06:10:35.206Z,1012.29
2016-05-16T06:11:35.208Z,1012.33
2016-05-16T06:12:35.197Z,1012.3
2016-05-16T06:13:35.183Z,1012.3
2016-05-16T06:14:35.186Z,1012.29
2016-05-16T06:15:35.173Z,1012.27
2016-05-16T06:16:35.176Z,1012.3
2016-05-16T06:17:35.162Z,1012.27
2016-05-16T06:18:35.149Z,1012.37
2016-05-16T06:19:35.153Z,1012.3
2016-05-16T06:20:35.140Z,1012.31
2016-05-16T06:21:35.143Z,1012.34
2016-05-16T06:22:35.129Z,1012.37
2016-05-16T06:23:35.116Z,1012.36
2016-05-16T06:24:35.119Z,1012.31
2016-05-16T06:25:35.106Z,1012.31
2016-05-16T06:26:35.093Z,1012.29
2016-05-16T06:27:35.081Z,1012.31
2016-05-16T06:28:35.067Z,1012.3
2016-05-16T06:29:35.070Z,1012.31
2016-05-16T06:30:35.057Z,1012.31
2016-05-16T06:31:35.044Z,1012.34
2016-05-16T06:32:35.032Z,1012.31
2016-05-16T06:33:35.033Z,1012.33
2016-05-16T06:34:35.021Z,1012.33
2016-05-16T06:35:35.009Z,1012.37
2016-05-16T06:36:34.995Z,1012.35
2016-05-16T06:37:34.983Z,1012.36
2016-05-16T06:38:34.969Z,1012.37
2016-05-16T06:39:34.956Z,1012.4
2016-05-16T06:40:34.959Z,1012.41
2016-05-16T06:41:34.947Z,1012.42
2016-05-16T06:42:34.933Z,1012.42
2016-05-16T06:43:34.920Z,1012.4
2016-05-16T06:44:34.907Z,1012.45
2016-05-16T06:45:34.894Z,1012.41
2016-05-16T06:46:34.897Z,1012.42
2016-05-16T06:47:34.869Z,1012.48
2016-05-16T06:48:34.856Z,1012.52
2016-05-16T06:49:34.858Z,1012.45
2016-05-16T06:50:34.846Z,1012.51
2016-05-16T06:51:34.833Z,1012.54
2016-05-16T06:52:34.819Z,1012.53
2016-05-16T06:53:34.807Z,1012.56
2016-05-16T06:54:34.793Z,1012.54
2016-05-16T06:55:34.781Z,1012.55
2016-05-16T06:56:34.768Z,1012.56
2016-05-16T06:57:34.755Z,1012.57
2016-05-16T06:58:34.757Z,1012.55
2016-05-16T06:59:34.776Z,1012.55
2016-05-16T07:00:34.715Z,1012.56
2016-05-16T07:01:35.203Z,1012.55
2016-05-16T07:02:34.706Z,1012.56
2016-05-16T07:03:34.692Z,1012.56
2016-05-16T07:04:34.665Z,1012.56
2016-05-16T07:05:34.667Z,1012.59
2016-05-16T07:06:34.653Z,1012.58
2016-05-16T07:07:34.642Z,1012.53
2016-05-16T07:08:34.628Z,1012.54
2016-05-16T07:09:34.615Z,1012.56
2016-05-16T07:10:34.602Z,1012.56
2016-05-16T07:11:34.589Z,1012.54
2016-05-16T07:12:34.577Z,1012.53
2016-05-16T07:13:34.564Z,1012.55
2016-05-16T07:14:34.550Z,1012.58
2016-05-16T07:15:34.553Z,1012.58
2016-05-16T07:16:34.525Z,1012.54
2016-05-16T07:17:34.511Z,1012.51
2016-05-16T07:18:34.514Z,1012.52
2016-05-16T07:19:34.501Z,1012.58
2016-05-16T07:20:34.488Z,1012.53
2016-05-16T07:21:34.476Z,1012.56
2016-05-16T07:22:34.463Z,1012.54
2016-05-16T07:23:34.450Z,1012.56
2016-05-16T07:24:34.452Z,1012.56
2016-05-16T07:25:34.440Z,1012.53
2016-05-16T07:26:34.426Z,1012.54
2016-05-16T07:27:34.413Z,1012.55
2016-05-16T07:28:34.401Z,1012.55
2016-05-16T07:29:34.387Z,1012.53
2016-05-16T07:30:34.376Z,1012.56
2016-05-16T07:31:34.378Z,1012.57
2016-05-16T07:32:34.364Z,1012.61
2016-05-16T07:33:34.351Z,1012.59
2016-05-16T07:34:34.339Z,1012.55
2016-05-16T07:35:34.326Z,1012.57
2016-05-16T07:36:34.312Z,1012.55
2016-05-16T07:37:34.300Z,1012.53
2016-05-16T07:38:34.303Z,1012.56
2016-05-16T07:39:34.290Z,1012.5
2016-05-16T07:40:34.278Z,1012.55
2016-05-16T07:41:34.263Z,1012.57
2016-05-16T07:42:34.251Z,1012.58
2016-05-16T07:43:34.238Z,1012.46
2016-05-16T07:44:34.225Z,1012.55
2016-05-16T07:45:34.211Z,1012.52
2016-05-16T07:46:34.214Z,1012.49
2016-05-16T07:47:34.201Z,1012.52
2016-05-16T07:48:34.188Z,1012.51
2016-05-16T07:49:34.177Z,1012.5
2016-05-16T07:50:34.163Z,1012.46
2016-05-16T07:51:34.150Z,1012.48
2016-05-16T07:52:34.137Z,1012.48
2016-05-16T07:53:34.124Z,1012.46
2016-05-16T07:54:34.111Z,1012.53
2016-05-16T07:55:34.098Z,1012.52
2016-05-16T07:56:34.085Z,1012.53
2016-05-16T07:57:34.072Z,1012.52
2016-05-16T07:58:34.076Z,1012.53
2016-05-16T07:59:34.063Z,1012.51
2016-05-16T08:00:34.049Z,1012.5
2016-05-16T08:01:34.037Z,1012.48
2016-05-16T08:02:34.023Z,1012.47
2016-05-16T08:03:34.010Z,1012.48
2016-05-16T08:04:33.997Z,1012.49
2016-05-16T08:05:33.984Z,1012.52
2016-05-16T08:06:33.972Z,1012.52
2016-05-16T08:07:33.975Z,1012.49
2016-05-16T08:08:33.961Z,1012.51
2016-05-16T08:09:33.948Z,1012.56
2016-05-16T08:10:33.936Z,1012.46
2016-05-16T08:11:33.922Z,1012.45
2016-05-16T08:12:33.909Z,1012.5
2016-05-16T08:13:33.896Z,1012.48
2016-05-16T08:14:33.884Z,1012.5
2016-05-16T08:15:33.887Z,1012.48
2016-05-16T08:16:33.874Z,1012.46
2016-05-16T08:17:33.861Z,1012.48
2016-05-16T08:18:33.847Z,1012.5
2016-05-16T08:19:33.835Z,1012.5
2016-05-16T08:20:34.291Z,1012.57
2016-05-16T08:21:34.043Z,1012.52
2016-05-16T08:22:33.811Z,1012.54
2016-05-16T08:23:33.799Z,1012.53
2016-05-16T08:24:33.786Z,1012.51
2016-05-16T08:25:33.773Z,1012.53
2016-05-16T08:26:33.760Z,1012.55
2016-05-16T08:27:33.762Z,1012.5
2016-05-16T08:28:33.749Z,1012.49
2016-05-16T08:29:33.736Z,1012.49
2016-05-16T08:30:33.723Z,1012.49
2016-05-16T08:31:33.711Z,1012.47
2016-05-16T08:32:33.713Z,1012.48
2016-05-16T08:33:33.701Z,1012.5
2016-05-16T08:34:33.687Z,1012.51
2016-05-16T08:35:33.675Z,1012.52
2016-05-16T08:36:33.662Z,1012.49
2016-05-16T08:37:33.664Z,1012.42
2016-05-16T08:38:33.651Z,1012.49
2016-05-16T08:39:33.639Z,1012.53
2016-05-16T08:40:33.625Z,1012.51
2016-05-16T08:41:33.628Z,1012.52
2016-05-16T08:42:33.615Z,1012.53
2016-05-16T08:43:33.602Z,1012.53
2016-05-16T08:44:33.590Z,1012.51
2016-05-16T08:45:33.591Z,1012.48
2016-05-16T08:46:33.579Z,1012.48
2016-05-16T08:47:33.567Z,1012.45
2016-05-16T08:48:33.569Z,1012.44
2016-05-16T08:49:33.556Z,1012.45
2016-05-16T08:50:33.824Z,1012.47
2016-05-16T08:51:33.546Z,1012.44
2016-05-16T08:52:33.533Z,1012.42
2016-05-16T08:53:33.535Z,1012.45
2016-05-16T08:54:33.522Z,1012.44
2016-05-16T08:55:33.525Z,1012.48
2016-05-16T08:56:33.513Z,1012.47
2016-05-16T08:57:33.499Z,1012.51
2016-05-16T08:58:33.502Z,1012.5
2016-05-16T08:59:33.489Z,1012.49
2016-05-16T09:00:33.476Z,1012.51
2016-05-16T09:01:33.478Z,1012.57
2016-05-16T09:02:33.465Z,1012.5
2016-05-16T09:03:33.469Z,1012.54
2016-05-16T09:04:33.456Z,1012.54
2016-05-16T09:05:33.506Z,1012.5
2016-05-16T09:06:33.445Z,1012.52
2016-05-16T09:07:33.432Z,1012.51
2016-05-16T09:08:33.435Z,1012.52
2016-05-16T09:09:33.422Z,1012.55
2016-05-16T09:10:33.425Z,1012.54
2016-05-16T09:11:33.412Z,1012.51
2016-05-16T09:12:33.400Z,1012.51
2016-05-16T09:13:33.402Z,1012.51
2016-05-16T09:14:33.389Z,1012.57
2016-05-16T09:15:33.391Z,1012.52
2016-05-16T09:16:33.378Z,1012.5
2016-05-16T09:17:33.365Z,1012.46
2016-05-16T09:18:33.368Z,1012.49
2016-05-16T09:19:33.356Z,1012.48
2016-05-16T09:20:33.592Z,1012.44
2016-05-16T09:21:33.345Z,1012.44
2016-05-16T09:22:33.332Z,1012.47
2016-05-16T09:23:33.319Z,1012.4
2016-05-16T09:24:33.322Z,1012.42
2016-05-16T09:25:33.310Z,1012.37
2016-05-16T09:26:33.312Z,1012.36
2016-05-16T09:27:33.299Z,1012.36
2016-05-16T09:28:33.302Z,1012.33
2016-05-16T09:29:33.288Z,1012.31
2016-05-16T09:30:33.291Z,1012.27
2016-05-16T09:31:33.293Z,1012.28
2016-05-16T09:32:33.281Z,1012.31
2016-05-16T09:33:33.284Z,1012.31
2016-05-16T09:34:33.287Z,1012.27
2016-05-16T09:35:33.274Z,1012.37
2016-05-16T09:36:33.276Z,1012.35
2016-05-16T09:37:33.263Z,1012.36
2016-05-16T09:38:33.265Z,1012.35
2016-05-16T09:39:33.268Z,1012.38
2016-05-16T09:40:33.256Z,1012.31
2016-05-16T09:41:33.258Z,1012.32
2016-05-16T09:42:33.261Z,1012.36
2016-05-16T09:43:33.248Z,1012.35
2016-05-16T09:44:33.251Z,1012.28
2016-05-16T09:45:33.253Z,1012.28
2016-05-16T09:46:33.256Z,1012.28
2016-05-16T09:47:33.258Z,1012.35
2016-05-16T09:48:33.246Z,1012.28
2016-05-16T09:49:33.249Z,1012.25
2016-05-16T09:50:33.329Z,1012.32
2016-05-16T09:51:33.239Z,1012.24
2016-05-16T09:52:33.241Z,1012.28
2016-05-16T09:53:33.228Z,1012.29
2016-05-16T09:54:33.230Z,1012.26
2016-05-16T09:55:33.233Z,1012.31
2016-05-16T09:56:33.221Z,1012.29
2016-05-16T09:57:33.208Z,1012.29
2016-05-16T09:58:33.211Z,1012.22
2016-05-16T09:59:33.213Z,1012.26
2016-05-16T10:00:33.200Z,1012.27
2016-05-16T10:01:33.202Z,1012.32
2016-05-16T10:02:33.205Z,1012.26
2016-05-16T10:03:33.192Z,1012.29
2016-05-16T10:04:33.195Z,1012.29
2016-05-16T10:05:33.182Z,1012.21
2016-05-16T10:06:33.185Z,1012.22
2016-05-16T10:07:33.173Z,1012.2
2016-05-16T10:08:33.175Z,1012.17
2016-05-16T10:09:33.178Z,1012.18
2016-05-16T10:10:33.164Z,1012.2
2016-05-16T10:11:33.167Z,1012.17
2016-05-16T10:12:33.154Z,1012.24
2016-05-16T10:13:33.157Z,1012.26
2016-05-16T10:14:33.801Z,1012.24
2016-05-16T10:15:33.147Z,1012.16
2016-05-16T10:16:33.134Z,1012.18
2016-05-16T10:17:33.136Z,1012.12
2016-05-16T10:18:33.123Z,1012.16
2016-05-16T10:19:33.125Z,1012.14
2016-05-16T10:20:33.129Z,1012.16
2016-05-16T10:21:33.116Z,1012.12
2016-05-16T10:22:33.119Z,1012.13
2016-05-16T10:23:33.122Z,1012.13
2016-05-16T10:24:33.108Z,1012.1
2016-05-16T10:25:33.111Z,1012.12
2016-05-16T10:26:33.098Z,1012.09
2016-05-16T10:27:33.101Z,1012.12
2016-05-16T10:28:33.104Z,1012.13
2016-05-16T10:29:33.091Z,1012.1
2016-05-16T10:30:33.094Z,1012.05
2016-05-16T10:31:33.096Z,1012.08
2016-05-16T10:32:33.083Z,1012.11
2016-05-16T10:33:33.085Z,1012.15
2016-05-16T10:34:33.073Z,1012.13
2016-05-16T10:35:33.075Z,1012.14
2016-05-16T10:36:33.079Z,1012.14
2016-05-16T10:37:33.065Z,1012.14
2016-05-16T10:38:33.067Z,1012.12
2016-05-16T10:39:33.071Z,1012.14
2016-05-16T10:40:33.058Z,1012.14
2016-05-16T10:41:33.060Z,1012.1
2016-05-16T10:42:33.048Z,1012.14
2016-05-16T10:43:33.050Z,1012.16
2016-05-16T10:44:33.053Z,1012.19
2016-05-16T10:45:33.039Z,1012.16
2016-05-16T10:46:33.042Z,1012.21
2016-05-16T10:47:33.045Z,1012.27
2016-05-16T10:48:33.033Z,1012.21
2016-05-16T10:49:33.035Z,1012.15
2016-05-16T10:50:33.022Z,1012.16
2016-05-16T10:51:33.024Z,1012.21
2016-05-16T10:52:33.012Z,1012.2
2016-05-16T10:53:33.014Z,1012.21
2016-05-16T10:54:33.002Z,1012.22
2016-05-16T10:55:33.005Z,1012.24
2016-05-16T10:56:33.007Z,1012.24
2016-05-16T10:57:33.034Z,1012.23
2016-05-16T10:58:33.068Z,1012.23
2016-05-16T10:59:33.102Z,1012.2
2016-05-16T11:00:33.152Z,1012.2
2016-05-16T11:01:33.185Z,1012.15
2016-05-16T11:02:33.209Z,1012.18
2016-05-16T11:03:33.229Z,1012.21
2016-05-16T11:04:33.233Z,1012.16
2016-05-16T11:05:35.081Z,1012.12
2016-05-16T11:06:33.257Z,1012.18
2016-05-16T11:07:33.266Z,1012.15
2016-05-16T11:08:33.259Z,1012.18
2016-05-16T11:09:33.267Z,1012.19
2016-05-16T11:10:33.261Z,1012.18
2016-05-16T11:11:33.270Z,1012.21
2016-05-16T11:12:33.275Z,1012.18
2016-05-16T11:13:33.263Z,1012.19
2016-05-16T11:14:33.269Z,1012.2
2016-05-16T11:15:33.257Z,1012.19
2016-05-16T11:16:33.263Z,1012.22
2016-05-16T11:17:33.251Z,1012.16
2016-05-16T11:18:33.254Z,1012.2
2016-05-16T11:19:33.243Z,1012.19
2016-05-16T11:20:33.511Z,1012.24
2016-05-16T11:21:33.234Z,1012.22
2016-05-16T11:22:33.238Z,1012.21
2016-05-16T11:23:33.240Z,1012.14
2016-05-16T11:24:33.228Z,1012.19
2016-05-16T11:25:33.214Z,1012.2
2016-05-16T11:26:33.202Z,1012.14
2016-05-16T11:27:33.205Z,1012.22
2016-05-16T11:28:33.192Z,1012.17
2016-05-16T11:29:33.178Z,1012.18
2016-05-16T11:30:33.182Z,1012.16
2016-05-16T11:31:33.169Z,1012.16
2016-05-16T11:32:33.156Z,1012.14
2016-05-16T11:33:33.159Z,1012.16
2016-05-16T11:34:33.146Z,1012.16
2016-05-16T11:35:33.133Z,1012.17
2016-05-16T11:36:33.135Z,1012.14
2016-05-16T11:37:33.122Z,1012.07
2016-05-16T11:38:33.110Z,1012.09
2016-05-16T11:39:33.113Z,1012.19
2016-05-16T11:40:33.099Z,1012.15
2016-05-16T11:41:33.102Z,1012.13
2016-05-16T11:42:33.088Z,1012.18
2016-05-16T11:43:33.076Z,1012.17
2016-05-16T11:44:33.079Z,1012.13
2016-05-16T11:45:33.065Z,1012.16
2016-05-16T11:46:33.054Z,1012.15
2016-05-16T11:47:33.056Z,1012.12
2016-05-16T11:48:33.043Z,1012.09
2016-05-16T11:49:33.030Z,1012.07
2016-05-16T11:50:33.032Z,1012.05
2016-05-16T11:51:33.035Z,1012.03
2016-05-16T11:52:33.022Z,1012.04
2016-05-16T11:53:33.009Z,1012.09
2016-05-16T11:54:33.012Z,1012.09
2016-05-16T11:55:32.999Z,1012.07
2016-05-16T11:56:32.986Z,1012.08
2016-05-16T11:57:32.989Z,1012.07
2016-05-16T11:58:32.975Z,1012.06
2016-05-16T11:59:32.979Z,1012.06
2016-05-16T12:00:33.169Z,1012.1
2016-05-16T12:01:32.969Z,1012.05
2016-05-16T12:02:32.956Z,1012.06
2016-05-16T12:03:32.942Z,1012.08
2016-05-16T12:04:32.945Z,1012.09
2016-05-16T12:05:32.932Z,1012.06
2016-05-16T12:06:32.919Z,1012.08
2016-05-16T12:07:32.922Z,1012.1
2016-05-16T12:08:32.909Z,1012.06